Time;durP1;ratioP1;P1;durP2;ratioP2;P2;SDS_P1;SDS_P2;PMS_P1;PMS_P2;Temp;Humidity;BMP_temperature;BMP_pressure;BME280_temperature;BME280_humidity;BME280_pressure;Samples;Min_cycle;Max_cycle;Signal;HPM_P1;HPM_P2
2022/03/25 00:01:43;;;;;;;183.65;69.97;;;3.20;99.90;;;;;;5102892;28;20047;-88
2022/03/25 00:04:09;;;;;;;130.70;61.45;;;3.20;99.90;;;;;;5090807;28;20086;-89
2022/03/25 00:06:38;;;;;;;156.18;63.33;;;3.10;99.90;;;;;;5091128;28;20040;-88
2022/03/25 00:09:03;;;;;;;121.07;58.53;;;3.00;99.90;;;;;;5066151;28;20063;-88
2022/03/25 00:11:30;;;;;;;96.93;50.40;;;3.00;99.90;;;;;;5073167;28;20044;-88
2022/03/25 00:13:56;;;;;;;171.73;50.08;;;2.90;99.90;;;;;;5089621;28;20071;-90
2022/03/25 00:16:21;;;;;;;152.55;49.78;;;2.90;99.90;;;;;;5097209;28;20096;-89
2022/03/25 00:18:47;;;;;;;178.40;47.92;;;2.80;99.90;;;;;;5101176;28;20043;-89
2022/03/25 00:21:13;;;;;;;123.95;46.63;;;2.80;99.90;;;;;;5071633;28;20052;-89
2022/03/25 00:23:38;;;;;;;128.20;50.55;;;2.70;99.90;;;;;;5066550;28;20057;-89
2022/03/25 00:26:05;;;;;;;123.10;50.03;;;2.70;99.90;;;;;;5041407;28;20041;-89
2022/03/25 00:28:30;;;;;;;117.47;47.10;;;2.60;99.90;;;;;;5078043;28;20070;-89
2022/03/25 00:30:56;;;;;;;114.28;46.72;;;2.50;99.90;;;;;;5082923;28;20485;-89
2022/03/25 00:33:22;;;;;;;100.00;45.78;;;2.50;99.90;;;;;;5075187;28;20044;-89
2022/03/25 00:35:47;;;;;;;81.57;43.25;;;2.40;99.90;;;;;;5093125;28;20044;-89
2022/03/25 00:38:13;;;;;;;87.65;45.78;;;2.30;99.90;;;;;;5081293;28;20043;-89
2022/03/25 00:40:39;;;;;;;80.85;45.08;;;2.20;99.90;;;;;;5090441;28;20032;-89
2022/03/25 00:43:06;;;;;;;85.95;46.17;;;2.20;99.90;;;;;;5057804;28;20043;-89
2022/03/25 00:45:32;;;;;;;85.63;45.42;;;2.10;99.90;;;;;;5077708;28;20055;-90
2022/03/25 00:48:01;;;;;;;84.07;45.00;;;2.00;99.90;;;;;;5055149;28;20095;-89
2022/03/25 00:50:27;;;;;;;88.65;45.17;;;2.00;99.90;;;;;;5067573;28;20079;-88
2022/03/25 00:52:53;;;;;;;101.72;45.50;;;1.90;99.90;;;;;;5057402;28;20185;-88
2022/03/25 00:55:19;;;;;;;102.00;44.65;;;1.90;99.90;;;;;;5063555;28;20131;-89
2022/03/25 00:57:45;;;;;;;92.63;43.47;;;1.90;99.90;;;;;;5078211;28;20083;-88
2022/03/25 01:00:11;;;;;;;141.45;43.83;;;1.80;99.90;;;;;;5064176;28;20075;-89
2022/03/25 01:02:38;;;;;;;84.95;43.08;;;1.80;99.90;;;;;;5090964;28;20047;-89
2022/03/25 01:05:05;;;;;;;126.03;43.58;;;1.80;99.90;;;;;;5056794;28;20048;-89
2022/03/25 01:07:31;;;;;;;87.13;41.03;;;1.80;99.90;;;;;;5077948;28;20045;-89
2022/03/25 01:09:57;;;;;;;110.03;42.58;;;1.80;99.90;;;;;;5086953;28;20071;-89
2022/03/25 01:12:23;;;;;;;96.00;44.13;;;1.90;99.90;;;;;;5064303;28;20175;-90
2022/03/25 01:14:49;;;;;;;119.50;50.70;;;1.80;99.90;;;;;;5071775;28;20162;-91
2022/03/25 01:17:16;;;;;;;100.65;45.67;;;1.90;99.90;;;;;;5054360;28;20101;-90
2022/03/25 01:19:43;;;;;;;126.90;51.10;;;1.90;99.90;;;;;;5071882;28;20523;-90
2022/03/25 01:22:08;;;;;;;136.02;53.05;;;1.90;99.90;;;;;;5055588;28;20052;-89
2022/03/25 01:24:34;;;;;;;179.75;57.78;;;2.00;99.90;;;;;;5072413;28;20048;-90
2022/03/25 01:27:00;;;;;;;222.45;55.05;;;2.00;99.90;;;;;;5072692;28;20048;-90
2022/03/25 01:29:26;;;;;;;145.25;54.78;;;2.00;99.90;;;;;;5090820;28;20051;-91
2022/03/25 01:31:53;;;;;;;231.73;57.92;;;2.10;99.90;;;;;;5061303;28;20544;-89
2022/03/25 01:34:19;;;;;;;195.13;53.45;;;2.10;99.90;;;;;;5077808;28;21427;-90
2022/03/25 01:36:46;;;;;;;250.43;58.38;;;2.10;99.90;;;;;;5073090;28;20042;-89
2022/03/25 01:39:12;;;;;;;172.00;53.15;;;2.10;99.90;;;;;;5095621;28;20048;-89
2022/03/25 01:41:38;;;;;;;187.40;53.42;;;2.30;99.90;;;;;;5072863;28;20066;-91
2022/03/25 01:44:04;;;;;;;208.80;52.80;;;2.20;99.90;;;;;;5088758;28;20485;-88
2022/03/25 01:46:30;;;;;;;224.90;52.95;;;2.20;99.90;;;;;;5054977;28;20048;-90
2022/03/25 01:48:57;;;;;;;394.73;56.72;;;2.10;99.90;;;;;;5061078;28;20044;-90
2022/03/25 01:51:32;;;;;;;211.10;51.47;;;2.10;99.90;;;;;;5041296;28;20409;-91
2022/03/25 01:54:07;;;;;;;377.75;59.05;;;2.10;99.90;;;;;;5080415;28;20036;-88
2022/03/25 01:56:34;;;;;;;411.15;56.55;;;2.10;99.90;;;;;;5088778;28;20056;-90
2022/03/25 01:59:00;;;;;;;492.77;61.75;;;2.10;99.90;;;;;;5087271;28;20046;-89
2022/03/25 02:01:26;;;;;;;732.55;70.03;;;2.10;99.90;;;;;;5075694;28;20036;-92
2022/03/25 02:03:52;;;;;;;765.10;70.10;;;2.10;99.90;;;;;;5076961;28;20140;-89
2022/03/25 02:06:17;;;;;;;814.67;76.30;;;2.10;99.90;;;;;;5076099;28;20048;-90
2022/03/25 02:08:43;;;;;;;1290.57;98.13;;;2.10;99.90;;;;;;5078325;28;20120;-90
2022/03/25 02:11:09;;;;;;;659.95;69.75;;;2.10;99.90;;;;;;5075797;28;20050;-90
2022/03/25 02:13:35;;;;;;;521.60;65.80;;;2.20;99.90;;;;;;5059974;28;20056;-90
2022/03/25 02:16:02;;;;;;;881.95;79.22;;;2.20;99.90;;;;;;5060466;28;20055;-89
2022/03/25 02:18:28;;;;;;;978.30;86.80;;;2.10;99.90;;;;;;5063630;28;20550;-90
2022/03/25 02:20:54;;;;;;;543.30;65.80;;;2.30;99.90;;;;;;5081162;28;20047;-89
2022/03/25 02:23:21;;;;;;;417.42;65.82;;;2.10;99.90;;;;;;5057715;28;20459;-90
2022/03/25 02:25:51;;;;;;;382.88;62.60;;;2.10;99.90;;;;;;5091976;28;20087;-87
2022/03/25 02:28:17;;;;;;;568.15;67.88;;;2.10;99.90;;;;;;5081996;28;20044;-89
2022/03/25 02:30:43;;;;;;;333.50;61.03;;;2.10;99.90;;;;;;5086995;28;20054;-89
2022/03/25 02:33:10;;;;;;;386.10;63.83;;;2.10;99.90;;;;;;5073127;28;20109;-88
2022/03/25 02:35:46;;;;;;;439.17;63.25;;;2.00;99.90;;;;;;5074852;28;20056;-89
2022/03/25 02:38:17;;;;;;;403.45;63.63;;;2.10;99.90;;;;;;5074677;28;20055;-88
2022/03/25 02:40:43;;;;;;;267.45;55.42;;;2.00;99.90;;;;;;5085931;28;20044;-88
2022/03/25 02:43:11;;;;;;;316.08;54.78;;;2.00;99.90;;;;;;5071098;28;20044;-87
2022/03/25 02:45:37;;;;;;;367.92;53.30;;;2.10;99.90;;;;;;5073893;28;20083;-89
2022/03/25 02:48:04;;;;;;;403.55;51.90;;;2.00;99.90;;;;;;5061700;28;20086;-87
2022/03/25 02:50:30;;;;;;;323.27;52.75;;;2.00;99.90;;;;;;5080657;28;20210;-88
2022/03/25 02:52:57;;;;;;;417.02;52.45;;;1.90;99.90;;;;;;5089868;28;20044;-89
2022/03/25 02:55:24;;;;;;;367.40;51.00;;;1.80;99.90;;;;;;5074257;28;20078;-89
2022/03/25 02:57:51;;;;;;;340.95;50.13;;;1.80;99.90;;;;;;5074202;28;20504;-89
2022/03/25 03:00:19;;;;;;;374.17;50.50;;;1.80;99.90;;;;;;5065846;28;20086;-89
2022/03/25 03:02:45;;;;;;;407.42;52.33;;;1.70;99.90;;;;;;5093971;28;20054;-89
2022/03/25 03:05:11;;;;;;;433.90;54.45;;;1.60;99.90;;;;;;5073768;28;20052;-88
2022/03/25 03:07:37;;;;;;;384.25;51.72;;;1.60;99.90;;;;;;5074453;28;20051;-89
2022/03/25 03:10:08;;;;;;;551.25;54.70;;;1.60;99.90;;;;;;5088054;28;20052;-89
2022/03/25 03:12:35;;;;;;;389.90;51.60;;;1.50;99.90;;;;;;5073641;28;20043;-89
2022/03/25 03:15:02;;;;;;;489.52;52.88;;;1.50;99.90;;;;;;5090479;28;20043;-90
2022/03/25 03:17:28;;;;;;;414.80;47.83;;;1.50;99.90;;;;;;5088802;28;20688;-89
2022/03/25 03:19:54;;;;;;;555.70;55.60;;;1.40;99.90;;;;;;5090567;28;20040;-90
2022/03/25 03:22:21;;;;;;;543.00;55.53;;;1.40;99.90;;;;;;5095758;28;20051;-90
2022/03/25 03:24:46;;;;;;;428.23;51.80;;;1.40;99.90;;;;;;5084848;28;20139;-89
2022/03/25 03:27:12;;;;;;;443.13;52.13;;;1.40;99.90;;;;;;5080959;28;20044;-89
2022/03/25 03:29:38;;;;;;;551.42;58.47;;;1.40;99.90;;;;;;5057875;28;20048;-90
2022/03/25 03:32:10;;;;;;;428.70;53.85;;;1.30;99.90;;;;;;5100129;28;20052;-88
2022/03/25 03:34:36;;;;;;;381.23;51.50;;;1.30;99.90;;;;;;5094016;28;20048;-89
2022/03/25 03:37:03;;;;;;;375.70;52.53;;;1.30;99.90;;;;;;5112072;28;20052;-88
2022/03/25 03:39:28;;;;;;;734.58;69.75;;;1.30;99.90;;;;;;5056493;28;20050;-88
2022/03/25 03:41:54;;;;;;;383.95;50.58;;;1.30;99.90;;;;;;5057822;28;20051;-88
2022/03/25 03:44:20;;;;;;;217.00;46.58;;;1.30;99.90;;;;;;5073359;28;20032;-88
2022/03/25 03:46:45;;;;;;;354.40;51.40;;;1.30;99.90;;;;;;5058439;28;20048;-88
2022/03/25 03:49:11;;;;;;;266.83;47.08;;;1.20;99.90;;;;;;5081734;28;20047;-88
2022/03/25 03:51:37;;;;;;;247.95;45.55;;;1.20;99.90;;;;;;5056419;28;20059;-89
2022/03/25 03:54:03;;;;;;;266.60;45.53;;;1.10;99.90;;;;;;5090717;28;20044;-88
2022/03/25 03:56:29;;;;;;;256.83;44.42;;;1.10;99.90;;;;;;5085548;28;20040;-88
2022/03/25 03:58:55;;;;;;;199.10;44.28;;;1.10;99.90;;;;;;5088210;28;20062;-89
2022/03/25 04:01:21;;;;;;;243.18;43.03;;;1.20;99.90;;;;;;5073788;28;20043;-89
2022/03/25 04:03:46;;;;;;;188.00;43.55;;;1.00;99.90;;;;;;5055226;28;20410;-88
2022/03/25 04:06:12;;;;;;;238.30;43.17;;;1.00;99.90;;;;;;5056920;28;20054;-89
2022/03/25 04:08:38;;;;;;;170.25;41.15;;;1.00;99.90;;;;;;5083737;28;20146;-89
2022/03/25 04:11:04;;;;;;;206.40;43.03;;;1.00;99.90;;;;;;5099160;28;20078;-90
2022/03/25 04:13:30;;;;;;;207.20;42.25;;;1.00;99.90;;;;;;5079590;28;20047;-89
2022/03/25 04:15:56;;;;;;;311.13;43.03;;;1.00;99.90;;;;;;5084864;28;20051;-89
2022/03/25 04:18:22;;;;;;;254.07;43.42;;;0.90;99.90;;;;;;5057960;28;20052;-88
2022/03/25 04:20:49;;;;;;;296.55;45.35;;;0.90;99.90;;;;;;5078024;28;20058;-88
2022/03/25 04:23:16;;;;;;;259.65;44.67;;;0.90;99.90;;;;;;5069553;28;20070;-89
2022/03/25 04:25:42;;;;;;;247.10;43.50;;;0.90;99.90;;;;;;5082580;28;20048;-89
2022/03/25 04:28:08;;;;;;;322.33;49.33;;;0.80;99.90;;;;;;5101408;28;20451;-89
2022/03/25 04:30:36;;;;;;;368.48;45.95;;;0.90;99.90;;;;;;5094495;28;20051;-89
2022/03/25 04:33:02;;;;;;;225.85;41.95;;;0.80;99.90;;;;;;5094375;28;20051;-88
2022/03/25 04:35:28;;;;;;;244.10;42.13;;;0.80;99.90;;;;;;5062068;28;20048;-89
2022/03/25 04:37:55;;;;;;;269.35;44.83;;;0.80;99.90;;;;;;5084473;28;20063;-88
2022/03/25 04:40:23;;;;;;;268.23;43.40;;;0.80;99.90;;;;;;5102091;28;20035;-89
2022/03/25 04:42:50;;;;;;;180.57;42.00;;;0.80;99.90;;;;;;5101077;28;20048;-88
2022/03/25 04:45:17;;;;;;;200.95;42.00;;;0.80;99.90;;;;;;5072294;28;20059;-89
2022/03/25 04:47:43;;;;;;;203.90;40.75;;;0.80;99.90;;;;;;5054492;28;20048;-88
2022/03/25 04:50:09;;;;;;;202.27;40.67;;;0.70;99.90;;;;;;5071303;28;20084;-87
2022/03/25 04:52:36;;;;;;;172.05;43.13;;;0.70;99.90;;;;;;5087832;28;20036;-88
2022/03/25 04:55:02;;;;;;;182.85;39.95;;;0.60;99.90;;;;;;5056581;28;20043;-88
2022/03/25 04:57:29;;;;;;;140.80;37.33;;;0.60;99.90;;;;;;5078957;28;20047;-88
2022/03/25 04:59:55;;;;;;;158.80;36.70;;;0.50;99.90;;;;;;5065489;28;20040;-89
2022/03/25 05:02:22;;;;;;;157.30;36.35;;;0.70;99.90;;;;;;5092834;28;20109;-88
2022/03/25 05:04:47;;;;;;;142.75;35.15;;;0.50;99.90;;;;;;5088192;28;20086;-88
2022/03/25 05:07:17;;;;;;;159.60;35.83;;;0.40;99.90;;;;;;5075882;28;20036;-88
2022/03/25 05:09:44;;;;;;;161.20;38.13;;;0.40;99.90;;;;;;5080655;28;20048;-88
2022/03/25 05:12:11;;;;;;;133.40;35.47;;;0.30;99.90;;;;;;5091731;28;20059;-88
2022/03/25 05:14:37;;;;;;;134.07;36.72;;;0.30;99.90;;;;;;5074734;28;20520;-87
2022/03/25 05:17:03;;;;;;;122.68;37.70;;;0.20;99.90;;;;;;5042496;28;20048;-87
2022/03/25 05:19:29;;;;;;;130.38;39.75;;;0.20;99.90;;;;;;5096976;28;20044;-88
2022/03/25 05:21:55;;;;;;;156.82;39.55;;;0.20;99.90;;;;;;5087075;28;20119;-89
2022/03/25 05:24:21;;;;;;;126.15;38.60;;;0.10;99.90;;;;;;5103404;28;20051;-88
2022/03/25 05:26:47;;;;;;;98.55;37.85;;;0.10;99.90;;;;;;5081494;28;20052;-88
2022/03/25 05:29:15;;;;;;;138.50;38.42;;;0.10;99.90;;;;;;5063842;28;20127;-87
2022/03/25 05:31:41;;;;;;;95.32;36.17;;;0.10;99.90;;;;;;5077159;28;20567;-88
2022/03/25 05:34:07;;;;;;;77.43;36.63;;;0.20;99.90;;;;;;5094222;28;20079;-88
2022/03/25 05:36:36;;;;;;;93.68;36.65;;;0.10;99.90;;;;;;5104317;28;20052;-88
2022/03/25 05:39:03;;;;;;;73.25;35.53;;;0.10;99.90;;;;;;5083684;28;20040;-85
2022/03/25 05:41:29;;;;;;;72.78;35.42;;;0.20;99.90;;;;;;5108548;28;20043;-88
2022/03/25 05:43:55;;;;;;;67.57;33.83;;;0.00;99.90;;;;;;5107006;28;20059;-88
2022/03/25 05:46:21;;;;;;;63.50;33.53;;;0.00;99.90;;;;;;5093583;28;20032;-87
2022/03/25 05:48:47;;;;;;;61.53;33.60;;;0.00;99.90;;;;;;5098127;28;20499;-87
2022/03/25 05:51:14;;;;;;;63.40;34.92;;;0.00;99.90;;;;;;5068503;28;20130;-88
2022/03/25 05:53:41;;;;;;;60.10;32.03;;;0.00;99.90;;;;;;5086402;28;20044;-88
2022/03/25 05:56:07;;;;;;;59.30;32.20;;;0.00;99.90;;;;;;5097061;28;20056;-87
2022/03/25 05:58:34;;;;;;;56.58;32.00;;;0.00;99.90;;;;;;5085697;28;20044;-87
2022/03/25 06:01:04;;;;;;;59.78;32.20;;;0.00;99.90;;;;;;5093650;28;20048;-88
2022/03/25 06:03:33;;;;;;;50.45;29.40;;;0.00;99.90;;;;;;5090997;28;20051;-88
2022/03/25 06:06:04;;;;;;;53.90;31.10;;;0.00;99.90;;;;;;5088681;28;20077;-87
2022/03/25 06:08:30;;;;;;;53.58;31.58;;;0.10;99.90;;;;;;5076956;28;20077;-87
2022/03/25 06:10:57;;;;;;;52.58;30.20;;;0.10;99.90;;;;;;5093528;28;20131;-87
2022/03/25 06:13:26;;;;;;;52.47;31.02;;;0.10;99.90;;;;;;5091861;28;20052;-88
2022/03/25 06:15:52;;;;;;;55.65;31.52;;;0.10;99.90;;;;;;5104081;28;20044;-88
2022/03/25 06:18:18;;;;;;;56.15;32.63;;;0.20;99.90;;;;;;5077313;28;20107;-88
2022/03/25 06:20:46;;;;;;;54.13;31.98;;;0.30;99.90;;;;;;5075841;28;20032;-88
2022/03/25 06:23:13;;;;;;;53.60;31.90;;;0.40;99.90;;;;;;5060213;28;20048;-89
2022/03/25 06:25:43;;;;;;;55.05;32.28;;;0.50;99.90;;;;;;5091676;28;20052;-89
2022/03/25 06:28:09;;;;;;;50.55;30.80;;;0.60;99.90;;;;;;5081807;28;20059;-89
2022/03/25 06:30:37;;;;;;;53.28;32.50;;;0.70;99.90;;;;;;5097862;28;20055;-87
2022/03/25 06:33:09;;;;;;;53.60;31.77;;;0.70;99.90;;;;;;5074537;28;20047;-89
2022/03/25 06:35:36;;;;;;;55.45;32.13;;;0.90;99.90;;;;;;5084889;28;20488;-86
2022/03/25 06:38:04;;;;;;;59.67;34.53;;;1.00;99.90;;;;;;5084281;28;20065;-90
2022/03/25 06:40:30;;;;;;;68.80;36.40;;;1.20;99.90;;;;;;5087462;28;20062;-91
2022/03/25 06:42:57;;;;;;;74.70;40.20;;;1.30;99.90;;;;;;5082146;28;20040;-90
2022/03/25 06:45:24;;;;;;;81.53;39.72;;;1.40;99.90;;;;;;5073125;28;20048;-90
2022/03/25 06:47:50;;;;;;;81.05;40.35;;;1.50;99.90;;;;;;5076754;28;20051;-90
2022/03/25 06:50:17;;;;;;;79.85;41.08;;;1.60;99.90;;;;;;5061198;28;20044;-90
2022/03/25 06:52:44;;;;;;;72.07;37.58;;;1.70;99.90;;;;;;5065707;28;20382;-90
2022/03/25 06:55:11;;;;;;;67.18;36.88;;;1.70;99.90;;;;;;5058819;28;20049;-90
2022/03/25 06:57:38;;;;;;;61.42;33.35;;;1.80;99.90;;;;;;5052560;28;20106;-88
2022/03/25 07:00:05;;;;;;;60.47;34.47;;;1.90;99.90;;;;;;5082593;28;20034;-93
2022/03/25 07:02:31;;;;;;;62.75;35.50;;;2.00;99.90;;;;;;5057318;28;20051;-91
2022/03/25 07:04:57;;;;;;;86.93;42.85;;;2.10;99.90;;;;;;5079202;28;20055;-90
2022/03/25 07:07:26;;;;;;;102.80;47.80;;;2.10;99.90;;;;;;5114664;28;20048;-93
2022/03/25 07:09:55;;;;;;;115.72;50.13;;;2.20;99.90;;;;;;5097263;28;20074;-92
2022/03/25 07:12:21;;;;;;;127.03;51.17;;;2.50;99.90;;;;;;5098031;28;20032;-91
2022/03/25 07:14:49;;;;;;;127.00;53.40;;;2.70;99.90;;;;;;5096505;28;20032;-89
2022/03/25 07:17:15;;;;;;;123.03;52.22;;;2.80;99.90;;;;;;5080036;28;20039;-91
2022/03/25 07:19:41;;;;;;;136.00;55.45;;;3.00;99.90;;;;;;5080453;28;20024;-91
2022/03/25 07:22:07;;;;;;;136.35;55.67;;;3.10;99.90;;;;;;5097089;28;20028;-93
2022/03/25 07:27:44;;;;;;;133.25;53.15;;;3.40;99.90;;;;;;4861152;22;20041;-88
2022/03/25 07:30:17;;;;;;;116.18;52.17;;;3.50;99.90;;;;;;5057097;28;20068;-93
2022/03/25 07:32:52;;;;;;;126.25;55.03;;;3.70;99.90;;;;;;5039245;28;20075;-95
2022/03/25 07:35:34;;;;;;;115.65;51.70;;;3.70;99.90;;;;;;5035822;28;20312;-88
2022/03/25 07:38:00;;;;;;;123.90;53.47;;;4.00;99.90;;;;;;5045356;28;20044;-95
2022/03/25 07:40:26;;;;;;;114.57;51.83;;;4.10;99.90;;;;;;5021105;28;20037;-94
2022/03/25 07:42:52;;;;;;;117.72;53.85;;;4.30;99.90;;;;;;5005483;28;20812;-92
2022/03/25 07:45:18;;;;;;;110.80;53.13;;;4.40;99.90;;;;;;5029060;28;20127;-91
2022/03/25 07:47:47;;;;;;;103.45;49.15;;;4.50;99.90;;;;;;5031478;28;20045;-91
2022/03/25 07:50:15;;;;;;;101.07;48.70;;;4.70;99.90;;;;;;5007624;28;20098;-92
2022/03/25 07:52:42;;;;;;;100.15;50.30;;;4.80;99.90;;;;;;5011225;28;20041;-91
2022/03/25 07:55:10;;;;;;;100.13;47.53;;;5.00;99.90;;;;;;5015323;28;20619;-92
2022/03/25 07:57:38;;;;;;;92.25;48.00;;;5.00;99.90;;;;;;5033389;28;20573;-92
2022/03/25 08:00:11;;;;;;;91.88;47.53;;;5.30;99.90;;;;;;5000311;28;20053;-88
2022/03/25 08:02:41;;;;;;;92.13;46.53;;;5.40;99.90;;;;;;5000775;28;20053;-92
2022/03/25 08:05:09;;;;;;;86.00;44.45;;;5.60;99.90;;;;;;5025897;28;20071;-92
2022/03/25 08:07:52;;;;;;;85.28;46.20;;;5.70;99.90;;;;;;5030621;28;20072;-93
2022/03/25 08:10:24;;;;;;;86.60;44.17;;;5.80;99.90;;;;;;5016652;28;20190;-89
2022/03/25 08:12:51;;;;;;;90.43;46.20;;;6.00;99.90;;;;;;5032905;28;20110;-91
2022/03/25 08:15:18;;;;;;;85.38;44.63;;;6.10;99.90;;;;;;5028150;28;20920;-91
2022/03/25 08:18:05;;;;;;;82.15;43.88;;;6.30;99.90;;;;;;5032209;28;20497;-90
2022/03/25 08:20:41;;;;;;;81.22;44.22;;;6.40;99.90;;;;;;5014350;28;20050;-90
2022/03/25 08:28:57;;;;;;;76.10;41.67;;;6.70;99.90;;;;;;5022152;28;20049;-91
2022/03/25 08:31:24;;;;;;;77.25;41.67;;;6.80;99.90;;;;;;5005788;28;20049;-89
2022/03/25 08:33:49;;;;;;;72.85;40.25;;;7.00;99.90;;;;;;5011012;28;20044;-89
2022/03/25 08:36:19;;;;;;;65.78;36.20;;;7.20;99.90;;;;;;5007743;28;20049;-91
2022/03/25 08:38:45;;;;;;;66.70;36.75;;;7.30;99.90;;;;;;5010440;28;20148;-90
2022/03/25 08:41:11;;;;;;;62.28;36.25;;;7.50;99.90;;;;;;5000961;28;20044;-89
2022/03/25 08:43:38;;;;;;;65.90;37.38;;;7.60;99.90;;;;;;5029796;28;20041;-89
2022/03/25 08:46:07;;;;;;;63.30;37.15;;;7.80;99.90;;;;;;5013005;28;20081;-91
2022/03/25 08:48:32;;;;;;;59.42;34.47;;;7.90;99.90;;;;;;5032231;28;20067;-90
2022/03/25 08:50:58;;;;;;;58.28;32.42;;;8.00;99.90;;;;;;4997609;28;20145;-90
2022/03/25 08:53:24;;;;;;;59.08;32.92;;;8.30;99.90;;;;;;5032686;28;20143;-90
2022/03/25 08:55:49;;;;;;;54.05;31.70;;;8.40;99.90;;;;;;5027790;28;20041;-88
2022/03/25 08:58:15;;;;;;;58.40;32.90;;;8.60;99.90;;;;;;5026421;28;20041;-89
2022/03/25 09:00:41;;;;;;;54.17;31.85;;;8.70;99.90;;;;;;5030929;28;20407;-90
2022/03/25 09:03:07;;;;;;;52.42;31.08;;;8.90;99.90;;;;;;5016580;28;20490;-90
2022/03/25 09:05:33;;;;;;;50.38;29.08;;;9.10;99.90;;;;;;5031105;28;20037;-89
2022/03/25 09:07:58;;;;;;;52.15;29.30;;;9.30;99.90;;;;;;4999020;28;20115;-88
2022/03/25 09:10:24;;;;;;;50.90;29.23;;;9.50;99.90;;;;;;4998774;28;20041;-88
2022/03/25 09:12:50;;;;;;;51.70;28.92;;;9.60;99.90;;;;;;5010397;28;20037;-88
2022/03/25 09:15:16;;;;;;;58.55;30.58;;;9.80;99.90;;;;;;5022830;28;20474;-88
2022/03/25 09:17:46;;;;;;;48.40;28.08;;;10.00;99.00;;;;;;5004316;28;20478;-89
2022/03/25 09:20:13;;;;;;;48.35;29.58;;;10.00;97.40;;;;;;5016930;28;20044;-89
2022/03/25 09:22:39;;;;;;;49.70;29.35;;;10.20;96.80;;;;;;5027474;28;20048;-89
2022/03/25 09:25:07;;;;;;;46.33;27.75;;;10.20;96.30;;;;;;5007164;28;20119;-89
2022/03/25 09:27:34;;;;;;;46.53;28.70;;;10.30;96.10;;;;;;4986606;28;20533;-89
2022/03/25 09:29:59;;;;;;;49.03;30.17;;;10.40;95.80;;;;;;5027120;28;20057;-88
2022/03/25 09:32:26;;;;;;;46.90;29.02;;;10.50;94.00;;;;;;5021348;28;20057;-89
2022/03/25 09:35:10;;;;;;;45.28;25.92;;;10.60;94.00;;;;;;4985379;28;20076;-87
2022/03/25 09:37:42;;;;;;;43.45;25.73;;;10.80;92.30;;;;;;5006225;28;20112;-89
2022/03/25 09:40:22;;;;;;;43.47;25.42;;;10.90;90.70;;;;;;5015117;28;20502;-90
2022/03/25 09:42:50;;;;;;;46.20;25.48;;;11.10;89.00;;;;;;5042883;28;20055;-88
2022/03/25 09:45:17;;;;;;;40.85;22.67;;;11.50;87.00;;;;;;4980846;28;20044;-89
2022/03/25 09:47:45;;;;;;;39.80;22.73;;;12.50;84.30;;;;;;5030867;28;20045;-89
2022/03/25 09:50:17;;;;;;;34.20;21.48;;;13.90;80.20;;;;;;5031376;28;20052;-89
2022/03/25 09:52:44;;;;;;;32.40;20.27;;;15.10;72.30;;;;;;5017381;28;20054;-89
2022/03/25 09:55:12;;;;;;;33.83;21.73;;;16.10;66.90;;;;;;5029549;28;20041;-88
2022/03/25 09:57:37;;;;;;;36.53;20.95;;;16.90;63.40;;;;;;5030412;28;20115;-88
2022/03/25 10:00:05;;;;;;;36.33;21.88;;;17.50;60.20;;;;;;5031221;28;20764;-88
2022/03/25 10:02:32;;;;;;;33.08;22.42;;;18.10;57.40;;;;;;5004842;28;20502;-89
2022/03/25 10:04:57;;;;;;;38.72;22.13;;;18.60;53.70;;;;;;5009984;28;20049;-89
2022/03/25 10:07:25;;;;;;;33.35;21.58;;;19.10;51.90;;;;;;5035436;28;20067;-90
2022/03/25 10:10:09;;;;;;;36.85;23.38;;;19.50;50.50;;;;;;5017399;28;20044;-91
2022/03/25 10:12:37;;;;;;;30.45;21.20;;;20.00;47.20;;;;;;5010452;28;20088;-88
2022/03/25 10:15:21;;;;;;;36.40;20.95;;;20.40;47.90;;;;;;5013262;28;20052;-88
2022/03/25 10:17:56;;;;;;;34.92;20.73;;;20.60;40.30;;;;;;5034329;28;20052;-90
2022/03/25 10:20:32;;;;;;;32.10;20.02;;;20.60;44.60;;;;;;5035013;28;20120;-90
2022/03/25 10:23:17;;;;;;;;;;;20.80;42.90;;;;;;5050985;28;20052;-90
2022/03/25 10:25:47;;;;;;;31.23;19.55;;;20.90;39.80;;;;;;5006604;28;19926;-87
2022/03/25 10:28:25;;;;;;;30.45;19.25;;;21.40;43.80;;;;;;5018501;28;20064;-89
2022/03/25 10:30:53;;;;;;;31.80;21.25;;;21.80;39.70;;;;;;5032798;28;20508;-89
2022/03/25 10:33:25;;;;;;;27.23;18.40;;;22.10;40.40;;;;;;5019284;28;20129;-90
2022/03/25 10:36:04;;;;;;;28.75;19.42;;;22.30;38.80;;;;;;5015240;28;20052;-89
2022/03/25 10:39:05;;;;;;;28.13;19.63;;;22.50;37.40;;;;;;5044893;28;20051;-89
2022/03/25 10:41:39;;;;;;;33.88;20.02;;;22.70;36.90;;;;;;5027471;28;20041;-88
2022/03/25 10:44:05;;;;;;;29.00;18.40;;;23.20;37.30;;;;;;5022862;28;20059;-88
2022/03/25 10:46:42;;;;;;;31.00;18.23;;;23.60;35.90;;;;;;5033662;28;20053;-89
2022/03/25 10:49:11;;;;;;;27.88;19.83;;;23.70;34.10;;;;;;5031633;28;20106;-88
2022/03/25 10:51:41;;;;;;;28.48;18.38;;;23.90;34.80;;;;;;5007958;28;20037;-91
2022/03/25 10:54:13;;;;;;;27.27;19.35;;;24.20;34.00;;;;;;5019068;28;20041;-89
2022/03/25 10:56:46;;;;;;;24.27;17.15;;;24.50;33.70;;;;;;5033464;28;20049;-89
2022/03/25 10:59:30;;;;;;;27.60;18.67;;;24.90;32.90;;;;;;5017708;28;20081;-90
2022/03/25 11:01:57;;;;;;;29.88;18.50;;;25.00;30.50;;;;;;5014776;28;20401;-90
2022/03/25 11:04:24;;;;;;;26.98;18.15;;;25.10;32.20;;;;;;5028173;28;20429;-90
2022/03/25 11:06:51;;;;;;;27.02;18.23;;;25.30;31.20;;;;;;5032600;28;20063;-89
2022/03/25 11:09:18;;;;;;;26.33;17.52;;;25.60;30.80;;;;;;5033680;28;20052;-88
2022/03/25 11:11:55;;;;;;;22.95;17.05;;;25.90;30.50;;;;;;5014086;28;20073;-89
2022/03/25 11:14:22;;;;;;;25.30;18.23;;;26.20;30.20;;;;;;5033721;28;20053;-89
2022/03/25 11:16:59;;;;;;;23.20;17.13;;;26.20;29.40;;;;;;5032065;28;20474;-90
2022/03/25 11:19:27;;;;;;;27.17;17.75;;;26.30;29.10;;;;;;5030536;28;20228;-89
2022/03/25 11:21:54;;;;;;;24.52;17.02;;;26.30;28.80;;;;;;5032001;28;20053;-89
2022/03/25 11:24:23;;;;;;;26.85;16.88;;;26.40;28.50;;;;;;5016855;28;20049;-90
2022/03/25 11:26:52;;;;;;;27.85;16.98;;;26.40;28.30;;;;;;5015596;28;20153;-89
2022/03/25 11:29:21;;;;;;;25.38;18.02;;;26.60;28.30;;;;;;5017236;28;20111;-89
2022/03/25 11:32:11;;;;;;;26.70;17.92;;;26.80;27.80;;;;;;5028331;28;20056;-89
2022/03/25 11:34:47;;;;;;;28.27;18.15;;;27.30;28.10;;;;;;5032142;28;20057;-88
2022/03/25 11:37:17;;;;;;;28.23;17.90;;;27.60;26.60;;;;;;5016139;28;20045;-88
2022/03/25 11:39:43;;;;;;;30.05;18.60;;;27.80;27.50;;;;;;5026696;28;20041;-89
2022/03/25 11:42:40;;;;;;;25.38;17.55;;;27.70;27.00;;;;;;5019998;28;20044;-90
2022/03/25 11:45:21;;;;;;;27.70;19.88;;;27.90;27.10;;;;;;5019973;28;20451;-92
2022/03/25 11:48:04;;;;;;;26.17;18.20;;;27.90;25.60;;;;;;5027158;28;20144;-88
2022/03/25 11:50:33;;;;;;;32.30;18.50;;;27.60;25.50;;;;;;5019421;28;20136;-88
2022/03/25 11:53:24;;;;;;;26.75;18.98;;;27.40;26.70;;;;;;5026316;28;20125;-88
2022/03/25 11:56:06;;;;;;;28.65;18.55;;;27.20;25.90;;;;;;5017541;28;20048;-88
2022/03/25 11:58:38;;;;;;;28.85;17.63;;;27.30;26.40;;;;;;5030790;28;20114;-89
2022/03/25 12:01:16;;;;;;;29.98;16.77;;;27.30;25.60;;;;;;5014805;28;20081;-90
2022/03/25 12:03:50;;;;;;;22.08;16.00;;;27.20;25.70;;;;;;5016011;28;20099;-89
2022/03/25 12:06:17;;;;;;;24.10;15.13;;;27.30;25.90;;;;;;5014328;28;20076;-88
2022/03/25 12:09:02;;;;;;;27.35;14.43;;;27.20;25.60;;;;;;5031029;28;20049;-88
2022/03/25 12:11:58;;;;;;;22.27;13.50;;;27.40;25.20;;;;;;5029245;28;20456;-90
2022/03/25 12:14:31;;;;;;;19.40;13.15;;;27.40;24.10;;;;;;5017611;28;20107;-88
2022/03/25 12:17:07;;;;;;;21.90;13.45;;;27.40;24.90;;;;;;5031170;28;20058;-88
2022/03/25 12:19:38;;;;;;;;;;;27.50;25.20;;;;;;5016137;28;20047;-89
2022/03/25 12:22:25;;;;;;;22.48;15.35;;;27.60;26.00;;;;;;5031105;28;19976;-88
2022/03/25 12:24:52;;;;;;;;;;;28.30;24.80;;;;;;5012957;28;20079;-87
2022/03/25 12:27:19;;;;;;;20.40;13.57;;;28.30;24.00;;;;;;5014173;28;19921;-89
2022/03/25 12:29:51;;;;;;;23.52;13.98;;;28.60;25.50;;;;;;4998540;28;20539;-89
2022/03/25 12:32:21;;;;;;;22.77;13.50;;;28.60;24.70;;;;;;5028918;28;20104;-89
2022/03/25 12:35:10;;;;;;;23.30;14.73;;;28.80;24.00;;;;;;5031765;28;20425;-88
2022/03/25 12:37:38;;;;;;;23.45;14.40;;;28.70;23.20;;;;;;5009706;28;20045;-89
2022/03/25 12:40:13;;;;;;;22.50;14.95;;;28.60;24.20;;;;;;5013476;28;20045;-89
2022/03/25 12:42:39;;;;;;;22.70;15.35;;;28.50;24.10;;;;;;5030755;28;20165;-88
2022/03/25 12:45:06;;;;;;;25.75;16.67;;;28.60;24.50;;;;;;4992288;28;20049;-88
2022/03/25 12:47:34;;;;;;;26.10;17.23;;;28.80;24.00;;;;;;5048645;28;20076;-88